Time;durP1;ratioP1;P1;durP2;ratioP2;P2;SDS_P1;SDS_P2;PMS_P1;PMS_P2;Temp;Humidity;BMP_temperature;BMP_pressure;BME280_temperature;BME280_humidity;BME280_pressure;Samples;Min_cycle;Max_cycle;Signal;HPM_P1;HPM_P2
2022/12/28 00:01:25;;;;;;;13.60;7.45;;;6.60;99.90;;;;;;5052903;28;20108;-71
2022/12/28 00:03:52;;;;;;;22.00;9.80;;;6.70;99.90;;;;;;5028717;28;20532;-71
2022/12/28 00:06:19;;;;;;;25.15;13.70;;;6.70;99.90;;;;;;5047707;28;20056;-72
2022/12/28 00:08:45;;;;;;;25.25;11.40;;;6.60;99.90;;;;;;5050363;28;20395;-74
2022/12/28 00:11:14;;;;;;;22.17;11.15;;;6.60;99.90;;;;;;5042212;28;20017;-71
2022/12/28 00:13:39;;;;;;;20.42;11.88;;;6.60;99.90;;;;;;5039617;28;20396;-70
2022/12/28 00:16:29;;;;;;;25.20;12.68;;;6.60;99.90;;;;;;5047404;28;20021;-71
2022/12/28 00:18:57;;;;;;;22.10;11.95;;;6.50;99.90;;;;;;5037767;28;20056;-71
2022/12/28 00:21:23;;;;;;;28.95;13.27;;;6.50;99.90;;;;;;5038157;28;20041;-71
2022/12/28 00:23:51;;;;;;;37.42;23.15;;;6.40;99.90;;;;;;5051643;28;20029;-71
2022/12/28 00:26:17;;;;;;;40.72;24.55;;;6.40;99.90;;;;;;5052594;28;20124;-75
2022/12/28 00:28:43;;;;;;;52.50;29.90;;;6.40;99.90;;;;;;5039402;28;20029;-70
2022/12/28 00:31:09;;;;;;;44.75;24.92;;;6.40;99.90;;;;;;5047398;28;20025;-71
2022/12/28 00:33:35;;;;;;;44.00;25.23;;;6.40;99.90;;;;;;5038488;28;20033;-71
2022/12/28 00:36:01;;;;;;;38.65;24.13;;;6.30;99.90;;;;;;5045997;28;20465;-72
2022/12/28 00:38:32;;;;;;;40.72;22.63;;;6.30;99.90;;;;;;5045042;28;20033;-72
2022/12/28 00:40:58;;;;;;;36.08;17.77;;;6.30;99.90;;;;;;5052238;28;20021;-72
2022/12/28 00:43:25;;;;;;;34.30;18.63;;;6.20;99.90;;;;;;5034156;28;20040;-73
2022/12/28 00:45:50;;;;;;;43.80;25.27;;;6.00;99.90;;;;;;5026391;28;20096;-71
2022/12/28 00:48:16;;;;;;;42.20;23.90;;;5.90;99.90;;;;;;5035193;28;20032;-72
2022/12/28 00:50:43;;;;;;;44.47;20.45;;;5.90;99.90;;;;;;5051667;28;20373;-72
2022/12/28 00:53:10;;;;;;;33.20;21.80;;;5.90;99.90;;;;;;5045760;28;20022;-72
2022/12/28 00:55:36;;;;;;;44.83;24.17;;;5.90;99.90;;;;;;5048892;28;20484;-72
2022/12/28 00:58:07;;;;;;;39.60;24.58;;;5.90;99.90;;;;;;5053605;28;20087;-73
2022/12/28 01:00:35;;;;;;;42.17;25.17;;;5.90;99.90;;;;;;5038374;28;20425;-71
2022/12/28 01:03:01;;;;;;;46.42;26.23;;;5.90;99.90;;;;;;5055802;28;20067;-71
2022/12/28 01:05:27;;;;;;;36.20;19.85;;;5.80;99.90;;;;;;5038002;28;20029;-71
2022/12/28 01:07:53;;;;;;;42.25;24.33;;;5.70;99.90;;;;;;5037877;28;20021;-71
2022/12/28 01:10:19;;;;;;;43.42;25.52;;;5.50;99.90;;;;;;5038228;28;20500;-71
2022/12/28 01:12:44;;;;;;;43.05;24.35;;;5.50;99.90;;;;;;5037380;28;20373;-72
2022/12/28 01:15:11;;;;;;;44.28;26.23;;;5.50;99.90;;;;;;5056057;28;20032;-70
2022/12/28 01:17:38;;;;;;;43.67;25.85;;;5.50;99.90;;;;;;5055761;28;20037;-72
2022/12/28 01:20:05;;;;;;;39.67;25.80;;;5.50;99.90;;;;;;5043645;28;20017;-71
2022/12/28 01:22:31;;;;;;;41.45;25.48;;;5.40;99.90;;;;;;5052219;28;20061;-71
2022/12/28 01:24:58;;;;;;;47.25;27.80;;;5.40;99.90;;;;;;5050432;28;20074;-73
2022/12/28 01:27:24;;;;;;;44.58;27.13;;;5.40;99.90;;;;;;5049872;28;20447;-75
2022/12/28 01:29:50;;;;;;;53.10;33.30;;;5.40;99.90;;;;;;5054880;28;20021;-74
2022/12/28 01:32:16;;;;;;;48.13;29.67;;;5.40;99.90;;;;;;5050387;28;20032;-72
2022/12/28 01:34:42;;;;;;;50.67;32.10;;;5.30;99.90;;;;;;5054420;28;20445;-75
2022/12/28 01:37:11;;;;;;;43.08;25.08;;;5.20;99.90;;;;;;5035577;28;20116;-73
2022/12/28 01:39:37;;;;;;;41.38;23.95;;;5.10;99.90;;;;;;5046999;28;20030;-72
2022/12/28 01:42:02;;;;;;;43.30;25.15;;;5.10;99.90;;;;;;5036339;28;20037;-71
2022/12/28 01:44:41;;;;;;;64.35;37.80;;;5.10;99.90;;;;;;5055324;28;20402;-72
2022/12/28 01:47:12;;;;;;;47.92;29.50;;;5.10;99.90;;;;;;5025576;28;20029;-72
2022/12/28 01:49:47;;;;;;;49.08;29.80;;;5.10;99.90;;;;;;5055178;28;20025;-72
2022/12/28 01:52:19;;;;;;;45.85;29.00;;;5.00;99.90;;;;;;5054893;28;20040;-72
2022/12/28 01:54:50;;;;;;;49.72;28.10;;;5.00;99.90;;;;;;5055276;28;20021;-71
2022/12/28 01:57:18;;;;;;;44.97;28.80;;;5.00;99.90;;;;;;5036938;28;20041;-71
2022/12/28 01:59:51;;;;;;;46.75;29.40;;;4.90;99.90;;;;;;5036754;28;20053;-71
2022/12/28 02:02:19;;;;;;;53.55;34.58;;;4.90;99.90;;;;;;5053589;28;20436;-71
2022/12/28 02:04:46;;;;;;;41.30;27.02;;;4.80;99.90;;;;;;5039466;28;20087;-71
2022/12/28 02:07:20;;;;;;;48.85;30.02;;;4.80;99.90;;;;;;5048501;28;20029;-71
2022/12/28 02:09:47;;;;;;;49.17;31.30;;;4.70;99.90;;;;;;5037058;28;20060;-71
2022/12/28 02:12:14;;;;;;;71.05;40.70;;;4.50;99.90;;;;;;5054568;28;20027;-72
2022/12/28 02:14:43;;;;;;;67.35;40.15;;;4.50;99.90;;;;;;5034379;28;20028;-72
2022/12/28 02:17:11;;;;;;;61.08;35.70;;;4.60;99.90;;;;;;5036581;28;20024;-73
2022/12/28 02:19:44;;;;;;;52.65;32.05;;;4.70;99.90;;;;;;5036647;28;20455;-73
2022/12/28 02:22:34;;;;;;;52.35;32.83;;;4.70;99.90;;;;;;5036116;28;20488;-71
2022/12/28 02:25:24;;;;;;;76.25;48.53;;;4.80;99.90;;;;;;5052092;28;20043;-71
2022/12/28 02:28:01;;;;;;;73.05;39.47;;;4.90;99.90;;;;;;5034633;28;20021;-72
2022/12/28 02:30:34;;;;;;;56.90;33.28;;;4.90;99.90;;;;;;5023661;28;20036;-72
2022/12/28 02:33:12;;;;;;;71.90;43.92;;;4.90;99.90;;;;;;5053554;28;20870;-72
2022/12/28 02:35:56;;;;;;;87.63;53.88;;;4.90;99.90;;;;;;5054450;28;20104;-71
2022/12/28 02:38:37;;;;;;;97.22;55.78;;;4.90;99.90;;;;;;5054066;28;20388;-72
2022/12/28 02:41:24;;;;;;;132.43;75.65;;;5.00;99.90;;;;;;5036205;28;20071;-72
2022/12/28 02:43:52;;;;;;;91.25;51.58;;;5.00;99.90;;;;;;5035559;28;20541;-72
2022/12/28 02:52:39;;;;;;;46.40;27.35;;;4.80;99.90;;;;;;5054024;28;20396;-75
2022/12/28 02:58:34;;;;;;;27.77;15.10;;;4.70;99.90;;;;;;5046662;28;20095;-72
2022/12/28 03:01:15;;;;;;;23.92;12.20;;;4.60;99.90;;;;;;5035927;28;20021;-73
2022/12/28 03:03:48;;;;;;;41.10;21.38;;;4.60;99.90;;;;;;5051878;28;20075;-72
2022/12/28 03:09:24;;;;;;;41.63;18.83;;;4.50;99.90;;;;;;5023799;28;20492;-71
2022/12/28 03:11:58;;;;;;;27.55;14.10;;;4.60;99.90;;;;;;5042901;28;20025;-70
2022/12/28 03:14:31;;;;;;;26.85;12.48;;;4.70;99.90;;;;;;5019203;28;20033;-72
2022/12/28 03:31:17;;;;;;;29.60;15.85;;;4.70;99.90;;;;;;5053486;28;20435;-71
2022/12/28 03:33:52;;;;;;;27.65;15.32;;;4.80;99.90;;;;;;5035221;28;20032;-71
2022/12/28 03:36:31;;;;;;;25.58;14.02;;;4.80;99.90;;;;;;5053433;28;20374;-71
2022/12/28 03:39:38;;;;;;;29.95;17.95;;;4.90;99.90;;;;;;5035390;28;20032;-71
2022/12/28 03:45:42;;;;;;;28.27;17.23;;;5.00;99.90;;;;;;5020547;28;20484;-71
2022/12/28 03:48:10;;;;;;;32.00;19.08;;;5.00;99.90;;;;;;4956320;28;20082;-71
2022/12/28 03:50:39;;;;;;;32.90;17.38;;;5.10;99.90;;;;;;4972647;28;20479;-70
2022/12/28 03:53:07;;;;;;;31.90;16.48;;;5.10;99.90;;;;;;4956134;28;20043;-72
2022/12/28 03:55:36;;;;;;;26.83;16.20;;;5.10;99.90;;;;;;4972397;28;20387;-71
2022/12/28 03:58:04;;;;;;;30.23;16.55;;;5.20;99.90;;;;;;4971895;28;20495;-71
2022/12/28 04:00:30;;;;;;;29.40;16.67;;;5.20;99.90;;;;;;4955852;28;20030;-72
2022/12/28 04:02:56;;;;;;;26.23;15.68;;;5.20;99.90;;;;;;4971903;28;20411;-72
2022/12/28 04:05:23;;;;;;;36.03;16.42;;;5.20;99.90;;;;;;4968850;28;20027;-76
2022/12/28 04:07:50;;;;;;;31.70;18.05;;;5.20;99.90;;;;;;4957124;28;20505;-72
2022/12/28 04:10:16;;;;;;;29.33;17.95;;;5.20;99.90;;;;;;4989348;28;20049;-72
2022/12/28 04:12:42;;;;;;;30.55;19.55;;;5.10;99.90;;;;;;4958349;28;20482;-72
2022/12/28 04:15:28;;;;;;;48.58;28.45;;;5.10;99.90;;;;;;4965870;28;20035;-72
2022/12/28 04:17:54;;;;;;;34.45;19.35;;;5.00;99.90;;;;;;4955871;28;20105;-72
2022/12/28 04:20:21;;;;;;;31.10;18.80;;;4.90;99.90;;;;;;4953105;28;20030;-73
2022/12/28 04:22:49;;;;;;;36.75;18.65;;;4.90;99.90;;;;;;4955612;28;20509;-73
2022/12/28 04:25:14;;;;;;;34.42;19.85;;;4.80;99.90;;;;;;5002884;28;20037;-72
2022/12/28 04:27:41;;;;;;;35.67;20.63;;;4.70;99.90;;;;;;5038797;28;20116;-71
2022/12/28 04:30:19;;;;;;;32.00;18.08;;;4.70;99.90;;;;;;5038699;28;20108;-73
2022/12/28 04:32:45;;;;;;;35.75;20.63;;;4.70;99.90;;;;;;5038705;28;20132;-74
2022/12/28 04:35:12;;;;;;;40.90;22.75;;;4.70;99.90;;;;;;5035811;28;20017;-73
2022/12/28 04:37:46;;;;;;;66.82;36.70;;;4.70;99.90;;;;;;5021536;28;20500;-72
2022/12/28 04:40:12;;;;;;;55.10;34.15;;;4.70;99.90;;;;;;5054119;28;20036;-72
2022/12/28 04:42:38;;;;;;;35.35;20.52;;;4.80;99.90;;;;;;5056522;28;20028;-73
2022/12/28 04:45:04;;;;;;;33.33;17.88;;;4.80;99.90;;;;;;5056415;28;20350;-71
2022/12/28 04:47:30;;;;;;;36.28;18.63;;;4.80;99.90;;;;;;5056535;28;20384;-72
2022/12/28 04:49:56;;;;;;;37.08;21.30;;;4.90;99.90;;;;;;5043152;28;20028;-72
2022/12/28 04:52:22;;;;;;;38.10;22.77;;;4.90;99.90;;;;;;5056321;28;20036;-72
2022/12/28 04:54:48;;;;;;;45.58;25.52;;;4.90;99.90;;;;;;5056186;28;20078;-72
2022/12/28 04:57:14;;;;;;;50.20;30.70;;;4.80;99.90;;;;;;5056052;28;20392;-73
2022/12/28 04:59:39;;;;;;;41.13;23.83;;;4.80;99.90;;;;;;5046307;28;20049;-71
2022/12/28 05:02:06;;;;;;;54.22;30.58;;;4.80;99.90;;;;;;5046021;28;20387;-71
2022/12/28 05:04:32;;;;;;;49.33;29.13;;;4.80;99.90;;;;;;5050362;28;20110;-71
2022/12/28 05:06:58;;;;;;;30.85;15.85;;;4.80;99.90;;;;;;5037158;28;20052;-72
2022/12/28 05:09:24;;;;;;;55.20;44.80;;;4.80;99.90;;;;;;5056083;28;20036;-72
2022/12/28 05:11:50;;;;;;;35.42;21.48;;;4.70;99.90;;;;;;5055654;28;20027;-72
2022/12/28 05:14:15;;;;;;;20.35;10.20;;;4.70;99.90;;;;;;5049397;28;20030;-73
2022/12/28 05:16:41;;;;;;;18.55;10.07;;;4.70;99.90;;;;;;5054923;28;20079;-72
2022/12/28 05:19:07;;;;;;;24.95;13.05;;;4.70;99.90;;;;;;5055614;28;20082;-72
2022/12/28 05:21:33;;;;;;;27.83;14.70;;;4.70;99.90;;;;;;5054290;28;20090;-72
2022/12/28 05:23:59;;;;;;;22.52;14.23;;;4.70;99.90;;;;;;5055361;28;20443;-73
2022/12/28 05:26:28;;;;;;;27.55;12.25;;;4.80;99.90;;;;;;5055507;28;20116;-72
2022/12/28 05:28:54;;;;;;;21.65;11.43;;;4.80;99.90;;;;;;5053562;28;20060;-71
2022/12/28 05:31:21;;;;;;;18.88;10.50;;;4.80;99.90;;;;;;5055127;28;20843;-71
2022/12/28 05:33:48;;;;;;;28.63;11.95;;;4.80;99.90;;;;;;5055151;28;20487;-71
2022/12/28 05:36:24;;;;;;;18.42;10.48;;;4.80;99.90;;;;;;5054016;28;20025;-71
2022/12/28 05:38:50;;;;;;;20.00;11.35;;;4.80;99.90;;;;;;5054794;28;20107;-71
2022/12/28 05:41:19;;;;;;;30.30;14.68;;;4.80;99.90;;;;;;5049167;28;20029;-71
2022/12/28 05:43:45;;;;;;;22.67;11.45;;;4.70;99.90;;;;;;5049655;28;20033;-71
2022/12/28 05:46:13;;;;;;;23.83;11.35;;;4.60;99.90;;;;;;5049035;28;20411;-73
2022/12/28 05:48:41;;;;;;;22.52;12.43;;;4.60;99.90;;;;;;5041987;28;20047;-71
2022/12/28 05:51:09;;;;;;;25.23;14.80;;;4.60;99.90;;;;;;5051426;28;20115;-71
2022/12/28 05:53:35;;;;;;;25.98;17.60;;;4.60;99.90;;;;;;5054627;28;20029;-71
2022/12/28 05:56:05;;;;;;;25.42;15.73;;;4.60;99.90;;;;;;5054966;28;20392;-71
2022/12/28 05:58:31;;;;;;;28.67;17.17;;;4.60;99.90;;;;;;5054216;28;20530;-71
2022/12/28 06:01:09;;;;;;;30.85;17.02;;;4.60;99.90;;;;;;5046112;28;20489;-71
2022/12/28 06:03:36;;;;;;;30.23;14.90;;;4.60;99.90;;;;;;5054627;28;20068;-71
2022/12/28 06:06:08;;;;;;;31.02;16.63;;;4.60;99.90;;;;;;5054725;28;20112;-74
2022/12/28 06:08:34;;;;;;;31.53;16.80;;;4.60;99.90;;;;;;5054475;28;20460;-73
2022/12/28 06:11:05;;;;;;;29.65;16.33;;;4.60;99.90;;;;;;5053375;28;20407;-72
2022/12/28 06:13:31;;;;;;;37.13;18.77;;;4.60;99.90;;;;;;5047094;28;20511;-73
2022/12/28 06:15:57;;;;;;;41.22;21.10;;;4.60;99.90;;;;;;5052672;28;20017;-73
2022/12/28 06:18:27;;;;;;;36.78;20.10;;;4.60;99.90;;;;;;5054329;28;20175;-73
2022/12/28 06:20:53;;;;;;;35.00;19.63;;;4.60;99.90;;;;;;5046881;28;20094;-73
2022/12/28 06:23:19;;;;;;;34.83;19.73;;;4.60;99.90;;;;;;5043252;28;20120;-73
2022/12/28 06:25:45;;;;;;;36.45;19.30;;;4.60;99.90;;;;;;5054847;28;20044;-74
2022/12/28 06:28:11;;;;;;;40.22;21.70;;;4.50;99.90;;;;;;5053307;28;20028;-73
2022/12/28 06:30:36;;;;;;;46.67;22.40;;;4.40;99.90;;;;;;5053813;28;20056;-73
2022/12/28 06:33:02;;;;;;;34.08;21.05;;;4.40;99.90;;;;;;5054208;28;20061;-71
2022/12/28 06:35:28;;;;;;;41.67;23.45;;;4.50;99.90;;;;;;5053863;28;20459;-75
2022/12/28 06:37:54;;;;;;;43.53;25.23;;;4.50;99.90;;;;;;5035172;28;20053;-74
2022/12/28 06:40:20;;;;;;;52.58;26.77;;;4.50;99.90;;;;;;5054120;28;20025;-73
2022/12/28 06:42:45;;;;;;;64.03;31.75;;;4.50;99.90;;;;;;5054049;28;20399;-73
2022/12/28 06:45:11;;;;;;;40.10;22.30;;;4.60;99.90;;;;;;5053822;28;20025;-73
2022/12/28 06:47:38;;;;;;;40.30;22.15;;;4.50;99.90;;;;;;5053086;28;20028;-74
2022/12/28 06:50:04;;;;;;;40.45;20.25;;;4.50;99.90;;;;;;5053948;28;20055;-72
2022/12/28 06:52:31;;;;;;;37.17;20.42;;;4.50;99.90;;;;;;5052655;28;20083;-72
2022/12/28 06:54:57;;;;;;;55.65;29.75;;;4.50;99.90;;;;;;5036448;28;20033;-73
2022/12/28 06:57:23;;;;;;;67.05;35.80;;;4.60;99.90;;;;;;5033855;28;20538;-73
2022/12/28 06:59:49;;;;;;;52.25;30.20;;;4.60;99.90;;;;;;5050219;28;20044;-71
2022/12/28 07:02:14;;;;;;;51.42;28.38;;;4.60;99.90;;;;;;5040360;28;20124;-71
2022/12/28 07:04:40;;;;;;;53.95;29.63;;;4.60;99.90;;;;;;5053059;28;20036;-71
2022/12/28 07:07:07;;;;;;;51.15;30.83;;;4.60;99.90;;;;;;5053093;28;20040;-71
2022/12/28 07:09:33;;;;;;;61.00;33.67;;;4.60;99.90;;;;;;5045987;28;20104;-71
2022/12/28 07:11:59;;;;;;;56.63;30.40;;;4.60;99.90;;;;;;5048224;28;20100;-72
2022/12/28 07:14:25;;;;;;;49.53;29.13;;;4.60;99.90;;;;;;5053265;28;20067;-71
2022/12/28 07:16:51;;;;;;;44.00;24.35;;;4.60;99.90;;;;;;5053483;28;20440;-77
2022/12/28 07:19:16;;;;;;;34.75;19.15;;;4.50;99.90;;;;;;5056645;28;20017;-72
2022/12/28 07:21:42;;;;;;;37.63;18.42;;;4.40;99.90;;;;;;5048614;28;20050;-72
2022/12/28 07:24:09;;;;;;;39.10;18.20;;;4.30;99.90;;;;;;5052360;28;20115;-71
2022/12/28 07:26:36;;;;;;;37.40;17.42;;;4.30;99.90;;;;;;5042352;28;20022;-73
2022/12/28 07:29:04;;;;;;;31.08;17.88;;;4.20;99.90;;;;;;5052267;28;20079;-74
2022/12/28 07:31:35;;;;;;;36.05;16.58;;;4.00;99.90;;;;;;5041047;28;20415;-73
2022/12/28 07:34:00;;;;;;;26.88;15.68;;;4.10;99.90;;;;;;5052647;28;20120;-73
2022/12/28 07:36:29;;;;;;;38.17;24.65;;;4.10;99.90;;;;;;5048666;28;20431;-73
2022/12/28 07:38:56;;;;;;;44.92;28.33;;;4.10;99.90;;;;;;5042065;28;20040;-72
2022/12/28 07:41:24;;;;;;;49.47;25.05;;;3.90;99.90;;;;;;5052844;28;20465;-73
2022/12/28 07:43:51;;;;;;;35.83;22.08;;;3.90;99.90;;;;;;5047037;28;20071;-73
2022/12/28 07:46:22;;;;;;;22.05;12.32;;;3.90;99.90;;;;;;5052333;28;20017;-73
2022/12/28 07:48:48;;;;;;;18.63;10.10;;;3.80;99.90;;;;;;5041832;28;20441;-73
2022/12/28 07:51:15;;;;;;;24.85;12.55;;;3.80;99.90;;;;;;5053056;28;20090;-72
2022/12/28 07:53:43;;;;;;;28.08;15.90;;;3.80;99.90;;;;;;5052762;28;20460;-72
2022/12/28 07:56:10;;;;;;;27.95;15.43;;;3.90;99.90;;;;;;5052422;28;20021;-73
2022/12/28 07:58:36;;;;;;;30.65;18.52;;;4.00;99.90;;;;;;5052098;28;20044;-73
2022/12/28 08:01:10;;;;;;;24.90;14.98;;;4.00;99.90;;;;;;5051787;28;20059;-73
2022/12/28 08:03:37;;;;;;;28.02;15.10;;;4.10;99.90;;;;;;5052825;28;20037;-73
2022/12/28 08:06:04;;;;;;;16.63;8.93;;;4.30;99.90;;;;;;5048312;28;20018;-73
2022/12/28 08:08:33;;;;;;;16.48;8.77;;;4.30;99.90;;;;;;5043904;28;20049;-72
2022/12/28 08:11:04;;;;;;;22.55;12.60;;;4.40;99.90;;;;;;5038429;28;20384;-73
2022/12/28 08:13:34;;;;;;;20.70;9.88;;;4.60;99.90;;;;;;5044720;28;20117;-73
2022/12/28 08:16:01;;;;;;;21.02;11.07;;;4.70;99.90;;;;;;5052494;28;20025;-73
2022/12/28 08:18:27;;;;;;;18.58;10.15;;;4.80;99.90;;;;;;5052341;28;20029;-73
2022/12/28 08:20:53;;;;;;;14.98;7.90;;;4.70;99.90;;;;;;5052603;28;20056;-73
2022/12/28 08:23:19;;;;;;;18.35;8.52;;;4.80;99.90;;;;;;5052310;28;20111;-72
2022/12/28 08:25:45;;;;;;;24.48;12.10;;;5.00;99.90;;;;;;5052293;28;20092;-74
2022/12/28 08:28:11;;;;;;;14.75;9.00;;;5.10;99.90;;;;;;5040971;28;20515;-75
2022/12/28 08:30:36;;;;;;;20.52;11.02;;;5.10;99.90;;;;;;5020131;28;20052;-72
2022/12/28 08:33:02;;;;;;;20.02;12.45;;;5.20;99.90;;;;;;5034578;28;20049;-73
2022/12/28 08:35:28;;;;;;;16.65;9.73;;;5.40;99.90;;;;;;5047057;28;20029;-71
2022/12/28 08:37:54;;;;;;;16.23;7.88;;;5.50;99.90;;;;;;5049538;28;20396;-74
2022/12/28 08:40:26;;;;;;;18.85;9.57;;;5.60;99.90;;;;;;5047163;28;20075;-72
2022/12/28 08:42:55;;;;;;;17.15;9.95;;;5.60;99.90;;;;;;5045720;28;20043;-72
2022/12/28 08:45:21;;;;;;;18.00;9.95;;;5.70;99.90;;;;;;5052022;28;20032;-72
2022/12/28 08:47:47;;;;;;;17.90;10.02;;;5.80;99.90;;;;;;5052365;28;20563;-72
2022/12/28 08:50:13;;;;;;;20.08;10.80;;;5.90;99.90;;;;;;5052139;28;20056;-72
2022/12/28 08:52:39;;;;;;;26.00;13.32;;;6.00;99.90;;;;;;5051553;28;20029;-73
2022/12/28 08:55:05;;;;;;;23.08;10.75;;;6.10;99.90;;;;;;5052402;28;20053;-72
2022/12/28 08:57:32;;;;;;;22.90;11.15;;;6.20;99.90;;;;;;5050659;28;20519;-72
2022/12/28 08:59:58;;;;;;;21.88;12.05;;;6.40;99.90;;;;;;5051040;28;20078;-72
2022/12/28 09:02:23;;;;;;;22.00;10.55;;;6.50;99.90;;;;;;5052011;28;20461;-72
2022/12/28 09:04:49;;;;;;;20.95;10.40;;;6.60;99.90;;;;;;5045629;28;20491;-73
2022/12/28 09:07:15;;;;;;;14.73;7.75;;;6.60;99.90;;;;;;5046982;28;20056;-72
2022/12/28 09:09:41;;;;;;;20.55;10.35;;;6.70;99.90;;;;;;5043989;28;20025;-72
2022/12/28 09:12:06;;;;;;;19.25;9.73;;;6.80;99.90;;;;;;5045207;28;20024;-72
2022/12/28 09:14:33;;;;;;;18.80;9.60;;;6.80;99.90;;;;;;5055611;28;20021;-72
2022/12/28 09:17:00;;;;;;;17.73;8.48;;;7.00;99.90;;;;;;5047381;28;20044;-73
2022/12/28 09:19:26;;;;;;;21.80;12.05;;;7.10;99.90;;;;;;5053078;28;20040;-72
2022/12/28 09:21:54;;;;;;;28.80;15.80;;;7.20;99.90;;;;;;5055585;28;20044;-74
2022/12/28 09:24:21;;;;;;;34.03;19.20;;;7.30;99.90;;;;;;5052839;28;20029;-73
2022/12/28 09:26:49;;;;;;;31.67;16.20;;;7.30;99.90;;;;;;5052446;28;20492;-72
2022/12/28 09:29:15;;;;;;;24.05;12.73;;;7.40;99.90;;;;;;5054121;28;20029;-71
2022/12/28 09:31:42;;;;;;;31.80;17.25;;;7.30;99.90;;;;;;5055840;28;20125;-72
2022/12/28 09:34:11;;;;;;;28.90;17.05;;;7.40;99.90;;;;;;5055462;28;20388;-72
2022/12/28 09:36:42;;;;;;;34.92;16.95;;;7.60;99.90;;;;;;5043275;28;20096;-73
2022/12/28 09:39:13;;;;;;;25.35;14.30;;;7.70;99.90;;;;;;5053840;28;20513;-72
2022/12/28 09:42:02;;;;;;;25.48;14.43;;;7.70;99.90;;;;;;5052109;28;20480;-71
2022/12/28 09:44:37;;;;;;;25.77;14.20;;;7.70;99.90;;;;;;5052872;28;20419;-72
2022/12/28 09:47:28;;;;;;;26.20;13.52;;;7.80;99.90;;;;;;5050704;28;20021;-71
2022/12/28 09:50:01;;;;;;;28.25;16.05;;;7.70;99.90;;;;;;5044458;28;20445;-71
2022/12/28 09:52:59;;;;;;;25.67;14.43;;;7.70;99.90;;;;;;5042243;28;20083;-70
2022/12/28 09:55:26;;;;;;;25.42;14.18;;;7.90;99.90;;;;;;5046691;28;20028;-71
2022/12/28 09:57:57;;;;;;;33.83;16.35;;;7.90;99.90;;;;;;5054920;28;20383;-71
2022/12/28 10:00:27;;;;;;;23.73;15.05;;;8.00;99.90;;;;;;5054065;28;20464;-71
2022/12/28 10:03:10;;;;;;;23.13;14.48;;;7.90;99.90;;;;;;5054200;28;20049;-71
2022/12/28 10:05:36;;;;;;;28.48;14.88;;;8.00;99.90;;;;;;5055032;28;20029;-71
2022/12/28 10:08:02;;;;;;;23.08;13.00;;;8.00;99.90;;;;;;5055019;28;20029;-70
2022/12/28 10:10:29;;;;;;;24.23;13.20;;;8.10;99.90;;;;;;5048489;28;20053;-72
2022/12/28 10:12:56;;;;;;;22.52;12.95;;;7.90;99.90;;;;;;5055091;28;20025;-71
2022/12/28 10:15:26;;;;;;;24.30;15.18;;;8.00;99.90;;;;;;5054657;28;20086;-71
2022/12/28 10:17:51;;;;;;;26.65;14.32;;;7.90;99.90;;;;;;5054682;28;20098;-71
2022/12/28 10:20:19;;;;;;;21.42;11.98;;;8.00;99.90;;;;;;5054469;28;20456;-71
2022/12/28 10:22:53;;;;;;;26.45;13.98;;;8.00;99.90;;;;;;5053820;28;20063;-71
2022/12/28 10:25:24;;;;;;;24.88;14.13;;;7.90;99.90;;;;;;5054447;28;20169;-71
2022/12/28 10:27:51;;;;;;;23.13;13.85;;;8.00;99.90;;;;;;5054423;28;20527;-70
2022/12/28 10:30:25;;;;;;;29.17;16.58;;;8.10;99.90;;;;;;5054208;28;20029;-71
2022/12/28 10:32:51;;;;;;;26.20;14.32;;;8.20;99.90;;;;;;5054227;28;20111;-72
2022/12/28 10:35:25;;;;;;;23.92;12.55;;;8.20;99.90;;;;;;5054237;28;20057;-72
2022/12/28 10:38:00;;;;;;;19.63;10.93;;;8.30;99.90;;;;;;5046445;28;20083;-70
2022/12/28 10:40:29;;;;;;;18.55;9.98;;;8.30;99.90;;;;;;5053221;28;20087;-71
2022/12/28 10:42:56;;;;;;;22.85;10.63;;;8.40;99.90;;;;;;5040684;28;20091;-72
2022/12/28 10:45:44;;;;;;;19.17;9.57;;;8.50;99.90;;;;;;5054180;28;20032;-72
2022/12/28 10:48:17;;;;;;;23.33;11.00;;;8.30;99.90;;;;;;5053713;28;20025;-71
2022/12/28 10:50:55;;;;;;;21.98;10.32;;;8.50;99.90;;;;;;5052110;28;20025;-71
2022/12/28 10:53:31;;;;;;;16.92;8.40;;;8.40;99.90;;;;;;5054038;28;20472;-72
2022/12/28 10:56:13;;;;;;;22.77;8.35;;;8.40;99.90;;;;;;5053713;28;20079;-70
2022/12/28 10:58:45;;;;;;;22.73;11.80;;;8.40;99.90;;;;;;5053954;28;20037;-70
2022/12/28 11:01:13;;;;;;;20.42;11.23;;;8.60;99.90;;;;;;5040709;28;20021;-70
2022/12/28 11:03:40;;;;;;;24.80;11.48;;;8.60;99.90;;;;;;5035042;28;20465;-70
2022/12/28 11:06:18;;;;;;;16.30;6.97;;;8.80;99.90;;;;;;5053908;28;20029;-70
2022/12/28 11:08:58;;;;;;;15.63;8.02;;;8.70;99.90;;;;;;5053501;28;20060;-71
2022/12/28 11:11:24;;;;;;;14.48;6.93;;;8.80;99.90;;;;;;5046024;28;20116;-70
2022/12/28 11:14:32;;;;;;;14.13;7.95;;;8.90;99.20;;;;;;5053714;28;20548;-70
2022/12/28 11:17:15;;;;;;;15.75;8.38;;;8.90;99.90;;;;;;5053135;28;20492;-70
2022/12/28 11:19:41;;;;;;;13.98;7.78;;;9.00;99.90;;;;;;5053514;28;20520;-71
2022/12/28 11:22:10;;;;;;;14.02;6.55;;;9.00;99.90;;;;;;5047002;28;20046;-72
2022/12/28 11:24:39;;;;;;;15.85;8.00;;;9.00;99.90;;;;;;5050753;28;20021;-72
2022/12/28 11:27:04;;;;;;;16.00;7.10;;;8.90;98.00;;;;;;5053471;28;20488;-72
2022/12/28 11:29:31;;;;;;;15.18;8.30;;;9.00;99.90;;;;;;5041859;28;20052;-73
2022/12/28 11:32:04;;;;;;;12.65;7.20;;;9.00;99.90;;;;;;5053306;28;20045;-73
2022/12/28 11:34:30;;;;;;;13.20;7.07;;;8.90;99.60;;;;;;5033320;28;20025;-75
2022/12/28 11:36:57;;;;;;;14.50;6.82;;;8.90;99.90;;;;;;5046665;28;20094;-72
2022/12/28 11:39:25;;;;;;;15.63;7.32;;;8.80;98.00;;;;;;5040018;28;20025;-72
2022/12/28 11:41:53;;;;;;;15.02;7.47;;;8.90;98.20;;;;;;5029514;28;20431;-74
2022/12/28 11:44:21;;;;;;;18.88;7.50;;;8.90;98.40;;;;;;5053176;28;20075;-73
2022/12/28 11:47:25;;;;;;;12.18;6.45;;;8.90;97.70;;;;;;5039722;28;20052;-72
2022/12/28 11:49:52;;;;;;;16.88;7.88;;;9.00;96.70;;;;;;5049505;28;20045;-74
2022/12/28 11:52:32;;;;;;;20.25;7.05;;;8.90;96.40;;;;;;5046679;28;20029;-73
2022/12/28 11:55:21;;;;;;;22.50;8.65;;;9.00;96.60;;;;;;5037981;28;20065;-72
2022/12/28 11:57:48;;;;;;;13.23;6.63;;;9.10;96.80;;;;;;5041016;28;20042;-73
2022/12/28 12:00:19;;;;;;;16.15;8.18;;;9.20;97.60;;;;;;5043131;28;20013;-73
2022/12/28 12:02:56;;;;;;;18.02;6.90;;;9.20;95.60;;;;;;5039979;28;20045;-73
2022/12/28 12:05:37;;;;;;;10.23;5.97;;;9.20;95.10;;;;;;5037091;28;20105;-72
2022/12/28 12:08:14;;;;;;;15.70;7.03;;;9.10;95.60;;;;;;5049107;28;20021;-73
2022/12/28 12:10:48;;;;;;;17.70;7.07;;;9.10;96.90;;;;;;5045004;28;20087;-73
2022/12/28 12:13:26;;;;;;;17.35;7.30;;;9.00;96.20;;;;;;5046909;28;20053;-74
2022/12/28 12:16:02;;;;;;;17.98;8.70;;;9.00;96.70;;;;;;5043749;28;20388;-72
2022/12/28 12:18:33;;;;;;;11.38;6.32;;;9.10;98.00;;;;;;5041692;28;20128;-73
2022/12/28 12:21:07;;;;;;;13.13;6.32;;;9.10;97.50;;;;;;5039363;28;20037;-73
2022/12/28 12:23:44;;;;;;;16.98;6.32;;;9.00;95.60;;;;;;5052912;28;20024;-72
2022/12/28 12:26:32;;;;;;;14.40;6.43;;;9.00;95.90;;;;;;5052919;28;20017;-73
2022/12/28 12:29:20;;;;;;;15.75;7.20;;;9.00;96.10;;;;;;5052558;28;20021;-73
2022/12/28 12:32:10;;;;;;;16.77;7.03;;;9.20;97.90;;;;;;5050418;28;20025;-73
2022/12/28 12:34:46;;;;;;;14.98;6.05;;;9.20;96.60;;;;;;5044115;28;20047;-73
2022/12/28 12:37:36;;;;;;;13.18;7.28;;;9.10;95.50;;;;;;5034726;28;20041;-74
2022/12/28 12:40:48;;;;;;;15.57;7.15;;;9.00;94.90;;;;;;5004633;28;20396;-73
2022/12/28 12:43:32;;;;;;;14.40;6.10;;;9.00;94.60;;;;;;5049562;28;20132;-73
2022/12/28 12:46:37;;;;;;;12.07;6.40;;;9.10;95.40;;;;;;5048074;28;20472;-73
2022/12/28 12:49:52;;;;;;;14.50;6.97;;;9.20;94.60;;;;;;5049697;28;20385;-73
2022/12/28 12:52:39;;;;;;;12.77;5.72;;;9.20;95.60;;;;;;4940961;29;20086;-74
2022/12/28 12:55:20;;;;;;;10.77;5.20;;;9.30;96.00;;;;;;4943496;29;20444;-74
2022/12/28 12:57:58;;;;;;;10.60;5.30;;;9.30;93.40;;;;;;4955967;29;20055;-73
2022/12/28 13:00:52;;;;;;;15.07;6.15;;;9.30;93.40;;;;;;4955898;29;20479;-76
2022/12/28 13:03:33;;;;;;;13.05;6.82;;;9.30;92.30;;;;;;4955586;29;20543;-72
2022/12/28 13:06:02;;;;;;;12.23;6.00;;;9.30;93.10;;;;;;4952029;29;20031;-72
2022/12/28 13:08:35;;;;;;;10.90;4.85;;;9.40;93.50;;;;;;4947159;29;20070;-72
2022/12/28 13:11:01;;;;;;;15.98;5.22;;;9.40;92.00;;;;;;4927121;29;20104;-72
2022/12/28 13:13:32;;;;;;;12.13;5.72;;;9.40;92.30;;;;;;4939961;29;20103;-71
2022/12/28 13:16:04;;;;;;;8.95;4.43;;;9.40;90.70;;;;;;4923751;29;20038;-72
2022/12/28 13:18:30;;;;;;;7.70;3.97;;;9.50;91.20;;;;;;4955595;29;20435;-75
2022/12/28 13:21:01;;;;;;;9.73;4.47;;;9.40;90.10;;;;;;4955387;29;20122;-72
2022/12/28 13:23:29;;;;;;;13.10;5.63;;;9.50;91.60;;;;;;4943346;29;20043;-71
2022/12/28 13:25:57;;;;;;;11.50;4.88;;;9.40;90.10;;;;;;4955278;29;20027;-75